Time;durP1;ratioP1;P1;durP2;ratioP2;P2;SDS_P1;SDS_P2;PMS_P1;PMS_P2;Temp;Humidity;BMP_temperature;BMP_pressure;BME280_temperature;BME280_humidity;BME280_pressure;Samples;Min_cycle;Max_cycle;Signal;HPM_P1;HPM_P2
2021/03/19 00:01:03;;;;;;;1.75;0.80;;;;;;;24.67;38.72;98310.09;5094699;28;20673;-61
2021/03/19 00:03:29;;;;;;;3.95;1.10;;;;;;;24.50;39.39;98312.00;5094883;28;20237;-56
2021/03/19 00:05:55;;;;;;;2.45;0.90;;;;;;;24.48;39.41;98311.34;5095099;28;20339;-58
2021/03/19 00:08:21;;;;;;;2.10;0.85;;;;;;;24.49;38.91;98304.16;5094829;28;20771;-60
2021/03/19 00:10:48;;;;;;;1.90;0.73;;;;;;;24.50;39.25;98308.50;5094919;28;20204;-56
2021/03/19 00:13:14;;;;;;;3.28;0.90;;;;;;;24.46;39.11;98305.34;5094660;28;20304;-54
2021/03/19 00:15:41;;;;;;;2.03;0.80;;;;;;;24.47;38.76;98303.50;5094550;28;20218;-59
2021/03/19 00:18:08;;;;;;;2.28;0.88;;;;;;;24.49;38.42;98301.50;5093985;28;20225;-59
2021/03/19 00:20:37;;;;;;;3.08;1.00;;;;;;;24.59;39.11;98302.13;5094642;28;20346;-60
2021/03/19 00:23:04;;;;;;;2.92;0.90;;;;;;;24.56;38.71;98299.78;5094192;28;20292;-60
2021/03/19 00:25:30;;;;;;;1.13;0.80;;;;;;;24.49;38.73;98296.97;5094145;28;20637;-60
2021/03/19 00:27:56;;;;;;;1.38;0.80;;;;;;;24.47;38.91;98303.50;5094417;28;20218;-60
2021/03/19 00:30:23;;;;;;;2.97;0.75;;;;;;;24.44;38.84;98301.19;5094328;28;20336;-62
2021/03/19 00:32:51;;;;;;;2.55;0.85;;;;;;;24.51;38.24;98296.78;5094176;28;20237;-60
2021/03/19 00:35:18;;;;;;;2.35;0.90;;;;;;;24.61;38.13;98297.41;5094229;28;20301;-60
2021/03/19 00:37:44;;;;;;;1.50;0.93;;;;;;;24.46;38.93;98286.63;5093565;28;20332;-62
2021/03/19 00:40:12;;;;;;;2.05;0.80;;;;;;;24.50;38.70;98292.47;5093753;28;20202;-61
2021/03/19 00:42:39;;;;;;;5.15;1.10;;;;;;;24.51;38.50;98283.44;5093827;28;20259;-59
2021/03/19 00:45:07;;;;;;;2.78;0.98;;;;;;;24.47;38.91;98287.47;5093546;28;20360;-61
2021/03/19 00:47:34;;;;;;;3.83;1.00;;;;;;;24.47;38.99;98290.97;5093856;28;20354;-61
2021/03/19 00:50:01;;;;;;;1.77;0.90;;;;;;;24.47;39.27;98288.31;5093818;28;20277;-60
2021/03/19 00:52:27;;;;;;;1.55;0.70;;;;;;;24.49;38.77;98280.09;5093341;28;20206;-60
2021/03/19 00:54:53;;;;;;;2.53;0.65;;;;;;;24.42;39.15;98282.66;5093320;28;20222;-61
2021/03/19 00:57:20;;;;;;;2.05;0.77;;;;;;;24.32;39.15;98285.56;5093703;28;20316;-60
2021/03/19 00:59:46;;;;;;;3.25;0.70;;;;;;;24.36;38.56;98280.69;5093202;28;20240;-60
2021/03/19 01:02:12;;;;;;;2.05;0.85;;;;;;;24.37;39.05;98280.50;5093454;28;20650;-60
2021/03/19 01:04:38;;;;;;;1.20;0.52;;;;;;;24.46;39.24;98275.94;5093613;28;20297;-60
2021/03/19 01:07:05;;;;;;;1.60;0.68;;;;;;;24.48;38.29;98273.09;5093746;28;20206;-61
2021/03/19 01:09:31;;;;;;;1.10;0.70;;;;;;;24.49;38.24;98278.25;5093623;28;20235;-60
2021/03/19 01:11:57;;;;;;;0.95;0.60;;;;;;;24.45;38.70;98276.97;5093137;28;20292;-57
2021/03/19 01:14:23;;;;;;;1.38;0.70;;;;;;;24.44;38.79;98275.28;5093646;28;20255;-61
2021/03/19 01:16:50;;;;;;;1.33;0.70;;;;;;;24.41;38.73;98277.50;5093490;28;20287;-60
2021/03/19 01:19:16;;;;;;;1.48;0.60;;;;;;;24.30;38.40;98274.22;5093218;28;20226;-61
2021/03/19 01:21:42;;;;;;;1.02;0.60;;;;;;;24.29;38.67;98272.53;5093440;28;20298;-57
2021/03/19 01:24:09;;;;;;;0.90;0.70;;;;;;;24.28;38.43;98268.22;5093471;28;20246;-61
2021/03/19 01:26:35;;;;;;;2.35;0.68;;;;;;;24.37;39.37;98267.16;5093245;28;20297;-59
2021/03/19 01:29:03;;;;;;;1.48;0.63;;;;;;;24.36;39.12;98268.19;5093042;28;20232;-60
2021/03/19 01:31:29;;;;;;;0.95;0.60;;;;;;;24.25;38.60;98268.56;5093651;28;20230;-60
2021/03/19 01:33:55;;;;;;;0.80;0.70;;;;;;;24.29;39.48;98253.03;5093302;28;20619;-60
2021/03/19 01:36:21;;;;;;;3.15;0.90;;;;;;;24.22;38.51;98257.41;5093508;28;20654;-61
2021/03/19 01:38:47;;;;;;;2.03;0.75;;;;;;;24.28;38.77;98260.22;5093145;28;20229;-62
2021/03/19 01:41:14;;;;;;;1.63;0.70;;;;;;;24.18;39.65;98259.56;5092999;28;20250;-60
2021/03/19 01:43:41;;;;;;;1.60;0.60;;;;;;;24.14;38.96;98259.09;5093197;28;20232;-59
2021/03/19 01:46:45;;;;;;;1.55;0.60;;;;;;;24.18;39.19;98251.56;5092990;28;20600;-62
2021/03/19 01:49:48;;;;;;;2.38;0.60;;;;;;;24.13;38.92;98241.44;5092452;28;20222;-62
2021/03/19 01:52:51;;;;;;;1.88;0.70;;;;;;;24.16;38.34;98243.75;5092375;28;20648;-58
2021/03/19 01:55:54;;;;;;;1.70;0.85;;;;;;;24.14;38.91;98244.94;5092724;28;20226;-60
2021/03/19 01:58:57;;;;;;;2.38;0.75;;;;;;;24.15;38.66;98235.91;5092307;28;20221;-61
2021/03/19 02:02:00;;;;;;;0.85;0.50;;;;;;;24.14;39.46;98239.59;5092357;28;20216;-61
2021/03/19 02:05:03;;;;;;;1.67;0.63;;;;;;;24.12;38.90;98231.75;5092286;28;20606;-59
2021/03/19 02:08:07;;;;;;;1.63;0.60;;;;;;;24.14;38.89;98227.06;5091753;28;20297;-60
2021/03/19 02:11:10;;;;;;;1.38;0.70;;;;;;;24.08;38.97;98225.09;5092522;28;20318;-61
2021/03/19 02:14:13;;;;;;;1.10;0.57;;;;;;;24.07;39.41;98225.28;5092341;28;20335;-61
2021/03/19 02:17:16;;;;;;;3.33;0.80;;;;;;;24.07;38.41;98217.28;5092707;28;20202;-61
2021/03/19 02:20:20;;;;;;;1.42;0.88;;;;;;;24.09;38.21;98216.06;5092355;28;20308;-60
2021/03/19 02:23:23;;;;;;;1.40;0.70;;;;;;;24.07;38.57;98219.94;5092082;28;20213;-61
2021/03/19 02:26:26;;;;;;;1.80;0.75;;;;;;;24.06;39.43;98219.09;5092018;28;20212;-62
2021/03/19 02:29:29;;;;;;;2.85;0.75;;;;;;;23.98;38.42;98219.13;5092027;28;20224;-61
2021/03/19 02:32:03;;;;;;;1.40;0.70;;;;;;;24.02;39.22;98226.63;5091890;28;20297;-62
2021/03/19 02:34:33;;;;;;;1.27;0.60;;;;;;;23.99;38.50;98224.31;5092249;28;20629;-58
2021/03/19 02:36:59;;;;;;;1.02;0.70;;;;;;;23.95;38.63;98228.34;5091943;28;20285;-55
2021/03/19 02:39:26;;;;;;;0.80;0.70;;;;;;;23.97;39.42;98236.19;5092021;28;20287;-60
2021/03/19 02:41:52;;;;;;;2.42;0.90;;;;;;;23.97;38.46;98229.00;5091258;28;20281;-61
2021/03/19 02:44:18;;;;;;;1.58;0.63;;;;;;;23.93;38.43;98227.69;5091380;28;20282;-61
2021/03/19 02:46:45;;;;;;;2.33;0.77;;;;;;;23.94;39.40;98232.00;5091353;28;20665;-62
2021/03/19 02:49:12;;;;;;;0.95;0.60;;;;;;;23.99;39.43;98226.16;5091625;28;20221;-61
2021/03/19 02:51:38;;;;;;;1.00;0.60;;;;;;;23.92;38.48;98226.03;5092316;28;20256;-60
2021/03/19 02:54:05;;;;;;;1.58;0.85;;;;;;;23.93;38.48;98222.34;5091262;28;20301;-61
2021/03/19 02:56:31;;;;;;;0.88;0.77;;;;;;;23.91;39.16;98224.34;5091766;28;20210;-61
2021/03/19 02:58:57;;;;;;;1.05;0.60;;;;;;;23.93;39.49;98225.03;5091693;28;20302;-60
2021/03/19 03:01:23;;;;;;;2.60;0.70;;;;;;;23.93;39.48;98217.00;5091227;28;20305;-61
2021/03/19 03:03:49;;;;;;;1.73;0.60;;;;;;;24.00;38.27;98217.97;5091705;28;20206;-61
2021/03/19 03:06:17;;;;;;;2.17;0.70;;;;;;;23.95;38.85;98212.31;5091180;28;20715;-62
2021/03/19 03:08:43;;;;;;;1.23;0.80;;;;;;;23.90;39.21;98206.69;5090865;28;20224;-62
2021/03/19 03:11:09;;;;;;;1.58;0.70;;;;;;;23.91;38.48;98204.84;5091234;28;20296;-61
2021/03/19 03:13:35;;;;;;;1.63;0.63;;;;;;;23.90;39.52;98213.84;5090689;28;20574;-54
2021/03/19 03:16:02;;;;;;;1.08;0.65;;;;;;;23.83;39.63;98211.03;5091007;28;20229;-61
2021/03/19 03:18:28;;;;;;;1.13;0.68;;;;;;;23.90;38.52;98216.50;5090047;28;20299;-61
2021/03/19 03:20:56;;;;;;;1.45;0.77;;;;;;;23.81;39.25;98213.03;5090963;28;20205;-60
2021/03/19 03:23:26;;;;;;;2.33;0.77;;;;;;;23.90;38.62;98219.19;5091036;28;20625;-61
2021/03/19 03:25:52;;;;;;;1.27;0.70;;;;;;;23.83;38.83;98216.38;5090735;28;20712;-62
2021/03/19 03:28:20;;;;;;;2.38;0.68;;;;;;;23.80;39.65;98219.38;5090729;28;20309;-61
2021/03/19 03:30:49;;;;;;;1.27;0.63;;;;;;;23.82;38.62;98220.06;5090803;28;20679;-60
2021/03/19 03:33:16;;;;;;;0.90;0.70;;;;;;;23.82;39.46;98217.41;5090854;28;20201;-60
2021/03/19 03:35:43;;;;;;;1.35;0.70;;;;;;;23.76;39.15;98212.72;5090863;28;20328;-61
2021/03/19 03:38:13;;;;;;;1.13;0.65;;;;;;;23.82;38.62;98215.56;5090705;28;20308;-61
2021/03/19 03:40:43;;;;;;;1.02;0.60;;;;;;;23.79;39.35;98217.72;5090506;28;20288;-61
2021/03/19 03:43:12;;;;;;;2.75;0.93;;;;;;;23.75;39.51;98213.75;5091020;28;20297;-61
2021/03/19 03:45:39;;;;;;;1.17;0.68;;;;;;;23.74;39.67;98214.72;5090858;28;20284;-60
2021/03/19 03:48:06;;;;;;;0.82;0.63;;;;;;;23.78;38.68;98213.38;5090677;28;20308;-61
2021/03/19 03:50:33;;;;;;;0.95;0.70;;;;;;;23.76;39.59;98221.53;5091032;28;20383;-61
2021/03/19 03:52:59;;;;;;;1.17;0.70;;;;;;;23.79;38.91;98217.72;5090501;28;20216;-61
2021/03/19 03:55:25;;;;;;;1.15;0.50;;;;;;;23.74;39.28;98215.56;5091054;28;20767;-61
2021/03/19 03:57:52;;;;;;;1.23;0.60;;;;;;;23.71;39.10;98217.75;5090816;28;20228;-62
2021/03/19 04:00:23;;;;;;;1.00;0.57;;;;;;;23.69;39.60;98212.59;5090652;28;20313;-60
2021/03/19 04:02:49;;;;;;;1.70;0.70;;;;;;;23.77;39.38;98211.72;5090981;28;20202;-60
2021/03/19 04:05:21;;;;;;;1.83;0.70;;;;;;;23.77;38.94;98217.06;5090966;28;20294;-61
2021/03/19 04:07:47;;;;;;;1.60;0.50;;;;;;;23.76;39.51;98215.38;5090875;28;20333;-60
2021/03/19 04:10:14;;;;;;;1.35;0.60;;;;;;;23.67;39.28;98216.44;5090760;28;20677;-60
2021/03/19 04:12:40;;;;;;;0.95;0.50;;;;;;;23.64;38.93;98213.09;5091339;28;20289;-61
2021/03/19 04:15:08;;;;;;;2.15;0.90;;;;;;;23.58;40.06;98219.16;5090566;28;20767;-60
2021/03/19 04:17:35;;;;;;;1.40;0.60;;;;;;;23.60;39.87;98213.63;5090946;28;20590;-61
2021/03/19 04:20:03;;;;;;;2.58;0.60;;;;;;;23.67;40.07;98213.78;5090661;28;20666;-61
2021/03/19 04:22:29;;;;;;;1.75;0.60;;;;;;;23.67;40.02;98211.09;5090667;28;20226;-62
2021/03/19 04:24:55;;;;;;;1.73;0.90;;;;;;;23.57;39.06;98209.47;5090825;28;20280;-60
2021/03/19 04:27:25;;;;;;;1.98;0.70;;;;;;;23.71;39.97;98209.75;5090398;28;20363;-61
2021/03/19 04:29:53;;;;;;;0.80;0.57;;;;;;;23.63;39.26;98206.13;5091875;28;20296;-61
2021/03/19 04:32:20;;;;;;;1.25;0.60;;;;;;;23.61;39.28;98205.44;5094104;28;20669;-61
2021/03/19 04:34:46;;;;;;;1.48;0.57;;;;;;;23.60;40.20;98202.97;5094291;28;20222;-60
2021/03/19 04:37:13;;;;;;;1.80;0.68;;;;;;;23.77;39.20;98212.53;5094027;28;20245;-61
2021/03/19 04:39:42;;;;;;;0.73;0.50;;;;;;;24.13;39.13;98206.72;5094488;28;20202;-62
2021/03/19 04:42:10;;;;;;;0.77;0.52;;;;;;;24.35;37.87;98204.22;5093850;28;20633;-56
2021/03/19 04:44:39;;;;;;;3.58;0.75;;;;;;;24.26;38.44;98210.63;5094045;28;20298;-59
2021/03/19 04:47:06;;;;;;;0.57;0.57;;;;;;;24.33;38.18;98208.91;5094275;28;20228;-60
2021/03/19 04:49:34;;;;;;;0.82;0.60;;;;;;;24.37;38.82;98212.88;5093827;28;20594;-60
2021/03/19 04:52:01;;;;;;;1.20;0.70;;;;;;;24.17;38.68;98223.22;5094014;28;20297;-61
2021/03/19 04:54:27;;;;;;;1.33;0.80;;;;;;;24.14;38.53;98216.38;5093357;28;20292;-57
2021/03/19 04:56:53;;;;;;;0.77;0.50;;;;;;;24.20;38.99;98217.53;5094205;28;20289;-61
2021/03/19 04:59:19;;;;;;;1.38;0.73;;;;;;;24.25;38.95;98212.47;5093814;28;20646;-61
2021/03/19 05:01:47;;;;;;;1.42;0.65;;;;;;;24.11;38.64;98211.38;5093878;28;20298;-59
2021/03/19 05:04:14;;;;;;;1.77;0.70;;;;;;;24.16;38.27;98210.84;5094101;28;20210;-60
2021/03/19 05:06:41;;;;;;;1.17;0.70;;;;;;;24.33;38.39;98211.56;5094047;28;20206;-61
2021/03/19 05:09:08;;;;;;;0.77;0.60;;;;;;;24.33;37.83;98212.41;5093594;28;20312;-61
2021/03/19 05:11:35;;;;;;;0.80;0.60;;;;;;;24.22;38.74;98220.84;5093915;28;20292;-59
2021/03/19 05:14:01;;;;;;;1.38;0.73;;;;;;;24.14;38.37;98220.88;5093359;28;20224;-62
2021/03/19 05:16:28;;;;;;;1.35;0.60;;;;;;;24.37;38.45;98219.06;5093098;28;20740;-62
2021/03/19 05:18:54;;;;;;;1.48;0.60;;;;;;;24.42;37.70;98225.72;5094045;28;20249;-61
2021/03/19 05:21:20;;;;;;;0.88;0.68;;;;;;;24.28;38.00;98214.81;5093642;28;20289;-61
2021/03/19 05:23:47;;;;;;;0.68;0.40;;;;;;;24.16;38.81;98218.88;5094335;28;20560;-60
2021/03/19 05:26:13;;;;;;;1.15;0.70;;;;;;;24.36;38.87;98224.56;5093848;28;20208;-61
2021/03/19 05:28:40;;;;;;;1.02;0.65;;;;;;;24.50;37.68;98229.16;5092938;28;20313;-61
2021/03/19 05:31:06;;;;;;;2.15;0.65;;;;;;;24.37;38.30;98218.22;5093428;28;20233;-62
2021/03/19 05:33:41;;;;;;;1.13;0.50;;;;;;;24.22;38.34;98225.38;5092858;28;20252;-61
2021/03/19 05:36:08;;;;;;;1.05;0.63;;;;;;;24.20;38.75;98228.22;5093170;28;20296;-61
2021/03/19 05:38:34;;;;;;;0.93;0.57;;;;;;;24.36;38.51;98225.44;5092838;28;20420;-61
2021/03/19 05:41:01;;;;;;;1.85;0.50;;;;;;;24.50;38.15;98223.00;5091866;28;20661;-61
2021/03/19 05:43:31;;;;;;;0.73;0.60;;;;;;;24.45;38.56;98222.66;5092974;28;20282;-60
2021/03/19 05:46:01;;;;;;;1.00;0.50;;;;;;;24.29;38.49;98223.63;5093467;28;20282;-58
2021/03/19 05:48:37;;;;;;;0.63;0.60;;;;;;;24.48;38.25;98233.00;5092617;28;20253;-61
2021/03/19 05:51:04;;;;;;;1.95;0.68;;;;;;;24.47;38.23;98236.72;5092710;28;20277;-62
2021/03/19 05:53:41;;;;;;;0.70;0.65;;;;;;;24.38;38.09;98242.09;5093060;28;20252;-61
2021/03/19 05:56:14;;;;;;;0.73;0.60;;;;;;;24.28;38.39;98248.66;5092397;28;20226;-61
2021/03/19 05:58:41;;;;;;;1.15;0.55;;;;;;;24.49;38.29;98248.03;5092767;28;20309;-61
2021/03/19 06:01:07;;;;;;;1.23;0.55;;;;;;;24.52;38.16;98261.88;5092253;28;20740;-61
2021/03/19 06:03:33;;;;;;;1.48;0.70;;;;;;;24.51;38.29;98259.38;5092082;28;20763;-59
2021/03/19 06:06:04;;;;;;;0.82;0.57;;;;;;;24.29;38.55;98264.53;5092949;28;20742;-60
2021/03/19 06:08:34;;;;;;;0.68;0.50;;;;;;;24.44;38.70;98272.63;5093115;28;20257;-57
2021/03/19 06:11:10;;;;;;;0.68;0.50;;;;;;;24.51;37.84;98268.22;5092069;28;20186;-61
2021/03/19 06:13:53;;;;;;;1.17;0.40;;;;;;;24.41;38.43;98267.63;5092259;28;20625;-61
2021/03/19 06:16:33;;;;;;;1.15;0.70;;;;;;;24.34;38.85;98272.03;5092462;28;20737;-61
2021/03/19 06:19:03;;;;;;;1.50;0.70;;;;;;;24.46;37.89;98275.94;5092381;28;20218;-62
2021/03/19 06:21:33;;;;;;;1.38;0.77;;;;;;;24.56;38.15;98281.09;5092420;28;20240;-61
2021/03/19 06:24:07;;;;;;;1.00;0.75;;;;;;;24.41;37.37;98280.97;5092238;28;20572;-62
2021/03/19 06:26:37;;;;;;;3.50;1.00;;;;;;;24.27;37.94;98287.09;5092757;28;20186;-61
2021/03/19 06:29:18;;;;;;;7.85;1.08;;;;;;;24.63;37.63;98284.72;5093180;28;20319;-59
2021/03/19 06:32:05;;;;;;;3.70;1.23;;;;;;;24.74;38.42;98278.13;5092309;28;20188;-60
2021/03/19 06:34:33;;;;;;;5.35;1.05;;;;;;;24.84;37.73;98284.06;5093580;28;20357;-62
2021/03/19 06:37:02;;;;;;;2.65;1.20;;;;;;;24.67;39.00;98288.69;5091949;28;20289;-60
2021/03/19 06:39:31;;;;;;;6.05;0.90;;;;;;;24.66;38.61;98289.69;5091500;28;20233;-56
2021/03/19 06:42:07;;;;;;;8.65;1.10;;;;;;;24.65;38.01;98287.22;5091978;28;20225;-61
2021/03/19 06:44:35;;;;;;;10.77;1.25;;;;;;;24.66;38.52;98291.53;5091319;28;20648;-59
2021/03/19 06:47:03;;;;;;;6.78;1.23;;;;;;;24.46;39.24;98291.97;5091875;28;20237;-59
2021/03/19 06:49:45;;;;;;;3.95;0.90;;;;;;;24.36;38.63;98286.03;5091537;28;20198;-58
2021/03/19 06:52:16;;;;;;;3.50;0.75;;;;;;;24.25;38.37;98284.59;5091248;28;20568;-58
2021/03/19 06:54:50;;;;;;;1.98;0.90;;;;;;;24.47;38.66;98287.47;5091808;28;20296;-59
2021/03/19 06:57:19;;;;;;;6.97;1.00;;;;;;;24.45;38.22;98286.81;5091349;28;20627;-54
2021/03/19 06:59:49;;;;;;;4.53;1.48;;;;;;;24.64;37.59;98286.38;5092044;28;20236;-56
2021/03/19 07:02:46;;;;;;;7.28;0.85;;;;;;;24.69;38.34;98297.38;5091709;28;20237;-58
2021/03/19 07:05:31;;;;;;;9.05;1.00;;;;;;;24.48;38.59;98283.78;5091401;28;20281;-59
2021/03/19 07:08:11;;;;;;;9.25;1.02;;;;;;;24.60;38.36;98285.09;5092476;28;20221;-61
2021/03/19 07:10:52;;;;;;;8.02;1.17;;;;;;;24.83;38.02;98285.06;5092243;28;20322;-62
2021/03/19 07:13:36;;;;;;;3.55;0.98;;;;;;;24.79;38.79;98290.97;5092704;28;20205;-60
2021/03/19 07:16:12;;;;;;;8.85;1.20;;;;;;;24.62;38.89;98295.59;5091324;28;20260;-53
2021/03/19 07:18:58;;;;;;;6.07;1.60;;;;;;;24.56;39.16;98294.44;5091322;28;20234;-58
2021/03/19 07:21:56;;;;;;;5.53;1.42;;;;;;;24.69;39.69;98292.00;5091464;28;20331;-55
2021/03/19 07:24:43;;;;;;;7.25;1.10;;;;;;;24.69;39.16;98301.88;5091368;28;20214;-58
2021/03/19 07:27:26;;;;;;;2.53;0.90;;;;;;;24.64;39.75;98298.91;5088568;28;20316;-58
2021/03/19 07:30:07;;;;;;;6.18;1.30;;;;;;;24.84;39.25;98299.28;5091144;28;20190;-53
2021/03/19 07:33:21;;;;;;;5.80;1.40;;;;;;;24.75;39.95;98307.34;5091223;28;20247;-53
2021/03/19 07:36:01;;;;;;;9.38;1.30;;;;;;;24.67;39.54;98310.09;5041126;28;20257;-60
2021/03/19 07:38:45;;;;;;;3.67;1.30;;;;;;;24.55;38.74;98311.50;5091007;28;20276;-59
2021/03/19 07:41:27;;;;;;;6.50;1.63;;;;;;;24.70;38.71;98315.06;5091165;28;20274;-57
2021/03/19 07:44:17;;;;;;;3.97;1.30;;;;;;;25.02;38.02;98310.47;5091124;28;20218;-57
2021/03/19 07:46:51;;;;;;;4.30;1.08;;;;;;;25.28;37.15;98315.47;5091509;28;20214;-57
2021/03/19 07:49:59;;;;;;;3.65;1.30;;;;;;;25.05;38.58;98314.66;5091075;28;20255;-59
2021/03/19 07:52:41;;;;;;;5.55;1.25;;;;;;;25.03;38.30;98314.84;5090412;28;20653;-56
2021/03/19 07:55:16;;;;;;;8.60;1.55;;;;;;;25.21;37.93;98321.69;5091187;28;20202;-60
2021/03/19 07:57:49;;;;;;;8.13;2.05;;;;;;;25.01;37.69;98311.47;5091480;28;20257;-61
2021/03/19 08:00:20;;;;;;;8.55;1.60;;;;;;;24.96;36.96;98319.22;5091386;28;20251;-55
2021/03/19 08:03:05;;;;;;;16.48;2.10;;;;;;;24.95;37.38;98320.25;5091184;28;20198;-60
2021/03/19 08:05:40;;;;;;;7.03;1.63;;;;;;;24.85;37.20;98327.69;5093167;28;20194;-58
2021/03/19 08:08:27;;;;;;;7.00;1.30;;;;;;;24.78;37.68;98321.38;5095229;28;20357;-60
2021/03/19 08:11:06;;;;;;;8.70;1.20;;;;;;;24.78;38.38;98324.03;5094879;28;20239;-58
2021/03/19 08:13:42;;;;;;;5.13;1.23;;;;;;;24.93;37.71;98325.78;5095100;28;20289;-59
2021/03/19 08:16:15;;;;;;;4.32;1.33;;;;;;;25.08;37.72;98333.00;5094931;28;20206;-60
2021/03/19 08:18:47;;;;;;;3.53;1.17;;;;;;;25.08;37.15;98333.84;5094491;28;20352;-61
2021/03/19 08:21:23;;;;;;;4.05;1.23;;;;;;;25.03;37.27;98327.34;5094756;28;20313;-58
2021/03/19 08:24:03;;;;;;;4.78;1.50;;;;;;;25.01;37.43;98330.19;5094635;28;20186;-58
2021/03/19 08:26:50;;;;;;;4.85;1.10;;;;;;;24.89;37.21;98331.66;5094842;28;20183;-59
2021/03/19 08:29:26;;;;;;;5.03;1.20;;;;;;;24.86;37.87;98329.31;5095233;28;20275;-57
2021/03/19 08:31:59;;;;;;;7.63;1.00;;;;;;;24.91;38.10;98340.31;5094821;28;20251;-55
2021/03/19 08:34:36;;;;;;;11.02;1.30;;;;;;;24.82;38.23;98330.72;5094428;28;20239;-60
2021/03/19 08:37:03;;;;;;;5.72;1.45;;;;;;;24.75;38.23;98344.78;5094447;28;20209;-60
2021/03/19 08:39:36;;;;;;;7.85;1.20;;;;;;;24.75;38.42;98342.09;5094507;28;20205;-60
2021/03/19 08:42:06;;;;;;;8.77;1.58;;;;;;;24.90;39.01;98341.34;5094415;28;20200;-61
2021/03/19 08:44:37;;;;;;;11.07;1.35;;;;;;;24.79;40.26;98337.22;5094059;28;20214;-61
2021/03/19 08:47:14;;;;;;;7.30;1.55;;;;;;;24.87;38.75;98344.38;5094379;28;20187;-55
2021/03/19 08:49:44;;;;;;;11.98;1.35;;;;;;;24.90;38.90;98347.53;5094487;28;20557;-61
2021/03/19 08:52:27;;;;;;;6.85;1.85;;;;;;;24.92;39.56;98356.19;5094352;28;20206;-57
2021/03/19 08:55:24;;;;;;;2.72;1.08;;;;;;;24.95;38.80;98355.00;5094004;28;20205;-61
2021/03/19 08:57:54;;;;;;;8.32;1.77;;;;;;;24.82;40.60;98354.78;5093840;28;20253;-60
2021/03/19 09:00:47;;;;;;;6.00;1.35;;;;;;;24.92;39.15;98363.38;5093818;28;20244;-60
2021/03/19 09:03:46;;;;;;;5.70;1.33;;;;;;;24.82;41.17;98365.47;5114186;28;20294;-56
2021/03/19 09:06:15;;;;;;;4.88;1.17;;;;;;;24.88;39.66;98364.72;5114292;28;20190;-55
2021/03/19 09:09:03;;;;;;;4.10;1.40;;;;;;;24.85;39.62;98365.13;5114395;28;20217;-59
2021/03/19 09:12:01;;;;;;;5.30;1.20;;;;;;;24.79;40.46;98365.81;5113406;28;20208;-62
2021/03/19 09:14:37;;;;;;;5.85;1.50;;;;;;;24.73;41.14;98376.22;5114118;27;20532;-60
2021/03/19 09:17:04;;;;;;;7.38;1.20;;;;;;;24.70;40.59;98373.88;5113744;28;20672;-62
2021/03/19 09:19:51;;;;;;;5.75;1.52;;;;;;;24.79;39.37;98376.50;5113742;28;20679;-57
2021/03/19 09:22:44;;;;;;;5.90;1.10;;;;;;;24.77;39.02;98378.53;5111283;28;20240;-60
2021/03/19 09:25:39;;;;;;;6.88;0.93;;;;;;;24.92;38.94;98374.09;5113868;27;20572;-62
2021/03/19 09:28:28;;;;;;;2.05;0.90;;;;;;;24.81;38.89;98380.66;5108073;28;20730;-61
2021/03/19 09:30:58;;;;;;;4.72;1.17;;;;;;;24.80;39.23;98375.47;5113338;28;20668;-58
2021/03/19 09:34:12;;;;;;;6.35;1.27;;;;;;;24.69;39.48;98379.41;5113919;28;20274;-53
2021/03/19 09:37:03;;;;;;;3.60;0.85;;;;;;;24.67;39.71;98384.94;5113738;28;20266;-59
2021/03/19 09:39:57;;;;;;;3.22;0.93;;;;;;;24.70;39.55;98381.91;5114179;28;20185;-61
2021/03/19 09:42:47;;;;;;;3.30;1.02;;;;;;;24.79;38.74;98376.50;5113635;28;20266;-59
2021/03/19 09:45:33;;;;;;;2.75;0.98;;;;;;;24.80;39.36;98388.84;5113336;28;20220;-61
2021/03/19 09:48:20;;;;;;;3.63;0.93;;;;;;;24.74;39.46;98388.56;5113240;28;20376;-61
2021/03/19 09:50:58;;;;;;;3.50;1.02;;;;;;;24.82;39.24;98392.22;5113060;28;20189;-62
2021/03/19 09:53:29;;;;;;;3.90;1.27;;;;;;;24.76;39.62;98399.06;5113457;28;20221;-57
2021/03/19 09:55:59;;;;;;;2.92;0.85;;;;;;;24.72;38.78;98398.59;5113484;28;20311;-60
2021/03/19 09:58:35;;;;;;;5.07;1.20;;;;;;;24.65;39.58;98392.28;5113008;28;20221;-59
2021/03/19 10:01:12;;;;;;;2.42;0.88;;;;;;;24.68;39.75;98399.97;5113265;28;20190;-61
2021/03/19 10:03:44;;;;;;;2.30;0.90;;;;;;;24.63;39.63;98390.78;5113432;28;20201;-60
2021/03/19 10:06:26;;;;;;;2.40;0.98;;;;;;;24.66;38.82;98399.28;5113630;28;20220;-58
2021/03/19 10:09:03;;;;;;;2.13;0.82;;;;;;;24.66;38.90;98396.63;5113242;28;20221;-61
2021/03/19 10:11:30;;;;;;;2.72;0.90;;;;;;;24.60;38.97;98402.69;5113496;28;20208;-60
2021/03/19 10:14:11;;;;;;;2.15;0.80;;;;;;;24.57;39.69;98405.69;5113469;28;20636;-61
2021/03/19 10:16:39;;;;;;;4.40;0.85;;;;;;;24.53;38.99;98407.00;5113702;28;20205;-59
2021/03/19 10:19:12;;;;;;;3.53;0.90;;;;;;;24.50;39.79;98410.06;5112986;28;20229;-58
2021/03/19 10:21:43;;;;;;;7.68;0.88;;;;;;;24.42;39.84;98410.09;5112730;28;20200;-59
2021/03/19 10:24:10;;;;;;;4.13;0.75;;;;;;;24.32;39.80;98416.47;5112494;28;20230;-59
2021/03/19 10:26:40;;;;;;;2.38;0.85;;;;;;;24.32;39.26;98413.78;5112679;27;20205;-59
2021/03/19 10:29:15;;;;;;;2.00;0.80;;;;;;;24.29;39.04;98414.13;5112272;28;20225;-57
2021/03/19 10:31:49;;;;;;;4.47;1.02;;;;;;;24.08;40.54;98406.72;5112628;28;20189;-58
2021/03/19 10:34:25;;;;;;;5.93;0.93;;;;;;;24.03;39.52;98414.38;5111975;28;20188;-52
2021/03/19 10:36:56;;;;;;;3.78;1.23;;;;;;;24.15;39.41;98414.88;5112141;28;20223;-56
2021/03/19 10:39:32;;;;;;;6.00;1.02;;;;;;;24.09;39.81;98421.72;5111978;28;20725;-57
2021/03/19 10:42:13;;;;;;;2.40;0.90;;;;;;;24.04;39.83;98420.56;5112042;28;20181;-54
2021/03/19 10:44:45;;;;;;;1.67;0.93;;;;;;;24.06;39.69;98423.91;5112141;28;20224;-57
2021/03/19 10:47:18;;;;;;;2.17;0.65;;;;;;;24.29;38.62;98416.81;5112029;28;20258;-54
2021/03/19 10:49:52;;;;;;;2.65;0.85;;;;;;;24.28;39.43;98419.66;5112214;28;20280;-50
2021/03/19 10:52:28;;;;;;;5.03;0.85;;;;;;;24.45;39.33;98423.09;5112176;28;20196;-60
2021/03/19 10:54:55;;;;;;;1.98;0.75;;;;;;;24.25;39.50;98418.16;5111940;28;20221;-59
2021/03/19 10:57:25;;;;;;;5.35;0.80;;;;;;;24.29;39.44;98422.16;5112090;28;20248;-52
2021/03/19 10:59:53;;;;;;;4.32;0.95;;;;;;;24.42;38.86;98418.94;5112013;28;20197;-52
2021/03/19 11:02:24;;;;;;;2.13;0.80;;;;;;;24.31;38.69;98414.78;5112085;28;20208;-55
2021/03/19 11:05:20;;;;;;;2.28;1.02;;;;;;;24.28;38.84;98423.16;5111690;28;20208;-55
2021/03/19 11:07:47;;;;;;;3.13;1.02;;;;;;;24.20;39.19;98420.53;5048785;28;20243;-50
2021/03/19 11:10:24;;;;;;;5.53;0.98;;;;;;;24.23;38.41;98420.19;5097267;28;20334;-51
2021/03/19 11:12:52;;;;;;;1.83;0.68;;;;;;;24.13;39.17;98433.72;5112439;28;20195;-56
2021/03/19 11:15:22;;;;;;;1.50;0.68;;;;;;;23.98;39.43;98428.25;5111631;28;20217;-52
2021/03/19 11:18:13;;;;;;;2.97;0.73;;;;;;;24.10;39.48;98419.88;5111715;28;20311;-59
2021/03/19 11:20:39;;;;;;;1.02;0.60;;;;;;;24.12;39.08;98432.06;5111730;28;20280;-56
2021/03/19 11:23:18;;;;;;;1.75;0.80;;;;;;;24.11;39.05;98432.22;5111262;28;20193;-53
2021/03/19 11:25:47;;;;;;;1.67;0.68;;;;;;;23.86;39.08;98440.28;5112031;28;20234;-59
2021/03/19 11:28:33;;;;;;;4.68;1.05;;;;;;;23.78;38.13;98432.25;5111735;28;20221;-63
2021/03/19 11:31:14;;;;;;;5.78;1.00;;;;;;;23.75;39.75;98443.28;5111789;28;20209;-63
2021/03/19 11:34:04;;;;;;;4.45;1.23;;;;;;;23.70;39.66;98450.94;5112051;28;20209;-61
2021/03/19 11:36:50;;;;;;;15.57;1.00;;;;;;;23.81;39.25;98443.47;5111086;28;20667;-61
2021/03/19 11:39:25;;;;;;;6.75;1.42;;;;;;;23.91;39.51;98445.94;5111958;28;20217;-60
2021/03/19 11:41:51;;;;;;;9.00;1.33;;;;;;;24.01;39.61;98448.44;5115949;28;20208;-57
2021/03/19 11:44:17;;;;;;;7.75;0.95;;;;;;;24.17;39.42;98452.91;5115951;28;20213;-59
2021/03/19 11:46:43;;;;;;;1.90;0.75;;;;;;;24.08;39.21;98457.47;5115802;28;20197;-64
2021/03/19 11:49:14;;;;;;;5.38;0.90;;;;;;;24.12;39.02;98463.28;5115399;28;20247;-60
2021/03/19 11:51:41;;;;;;;5.78;1.05;;;;;;;24.08;39.83;98459.28;5115606;28;20631;-61
2021/03/19 11:54:09;;;;;;;1.95;0.75;;;;;;;24.07;39.47;98458.44;5115688;28;20265;-60
2021/03/19 11:56:35;;;;;;;8.23;1.00;;;;;;;24.15;39.75;98466.44;5115172;28;20311;-60
2021/03/19 11:59:02;;;;;;;3.22;0.80;;;;;;;24.04;40.12;98473.97;5115117;28;20236;-61
2021/03/19 12:01:29;;;;;;;8.80;1.23;;;;;;;24.13;39.75;98472.94;5102771;28;20295;-63
2021/03/19 12:03:56;;;;;;;4.68;0.82;;;;;;;24.26;38.49;98475.91;5094962;28;20229;-62
2021/03/19 12:06:26;;;;;;;2.38;0.80;;;;;;;24.27;39.26;98472.25;5094897;28;20229;-63